หน้าหลัก
METAR-TAF:

METAR-TAF

ท่าอากาศยาน :

Puerto Peñasco, เม็กซิโก

ละติจูด: 31-21-07N, ลองจิจูด: 113-18-20W, ความสูง: 22 ม.

การสังเกตสภาพอากาศปัจจุบัน

รายงานได้ทำขึ้นเมื่อ 1 ชั่วโมงและ 11 นาทีที่แล้ว ณ เวลา 14:53 UTC
ลม 10 นอตจากตะวันออก/ตะวันออกเฉียงใต้
อุณหภูมิ 27°C
ความชื้น 62%
ความกดอากาศ 1003 hPa
ทัศนวิสัย: 16.1 กม.
ท้องฟ้าแจ่มใส

METAR: MMPE 181453Z 12010KT 10SM SKC 27/19 A2962 RMK HZY RTS

เวลา: 09:04 (16:04 UTC)


TAF: หายไป

สังเกตการณ์สภาพอากาศและพยากรณ์อากาศของสนามบินมากกว่า 4000 แห่ง (รายงาน METAR และ TAF).

สถานีที่ดูได้จะแสดงไว้ด้วยจุดสีเหลืองและสีแดงบนแผนที่.

เลื่อนเมาส์ไปเหนือจุดเพื่อดูชื่อสถานี.

แล้วคลิกเพื่อดูสังเกตการณ์และการพยากรณ์สภาพอากาศ.

ในการเปลี่ยนแผนที่: คลิกที่ปุ่มสีเขียวที่มีกากบาทสีดำเพื่อซูมเข้า; ที่ปุ่มสีเขียวที่มีขีดเพื่อซูมออก; หรือที่ลูกศรสีเขียวเพื่อไปยังแผนที่ที่อยู่ติดกัน.


METAR-TAF: